sensor_id;sensor_type;location;lat;lon;timestamp;P1;durP1;ratioP1;P2;durP2;ratioP2
51146;SDS011;37207;53.060;18.726;2024-02-16T00:01:42;75.90;;;55.60;;
51146;SDS011;37207;53.060;18.726;2024-02-16T00:04:09;71.60;;;55.90;;
51146;SDS011;37207;53.060;18.726;2024-02-16T00:06:35;73.30;;;58.40;;
51146;SDS011;37207;53.060;18.726;2024-02-16T00:09:02;51.00;;;23.20;;
51146;SDS011;37207;53.060;18.726;2024-02-16T00:11:29;76.80;;;58.90;;
51146;SDS011;37207;53.060;18.726;2024-02-16T00:13:56;78.50;;;60.10;;
51146;SDS011;37207;53.060;18.726;2024-02-16T00:16:22;126.90;;;87.80;;
51146;SDS011;37207;53.060;18.726;2024-02-16T00:18:49;86.50;;;64.20;;
51146;SDS011;37207;53.060;18.726;2024-02-16T00:21:16;74.30;;;59.00;;
51146;SDS011;37207;53.060;18.726;2024-02-16T00:23:43;48.20;;;25.00;;
51146;SDS011;37207;53.060;18.726;2024-02-16T00:26:10;71.80;;;56.10;;
51146;SDS011;37207;53.060;18.726;2024-02-16T00:28:37;76.20;;;55.50;;
51146;SDS011;37207;53.060;18.726;2024-02-16T00:31:04;74.40;;;55.90;;
51146;SDS011;37207;53.060;18.726;2024-02-16T00:33:32;51.50;;;24.30;;
51146;SDS011;37207;53.060;18.726;2024-02-16T00:35:59;67.50;;;53.80;;
51146;SDS011;37207;53.060;18.726;2024-02-16T00:38:26;50.80;;;24.80;;
51146;SDS011;37207;53.060;18.726;2024-02-16T00:40:53;68.60;;;52.90;;
51146;SDS011;37207;53.060;18.726;2024-02-16T00:43:19;72.50;;;53.30;;
51146;SDS011;37207;53.060;18.726;2024-02-16T00:45:46;64.60;;;50.70;;
51146;SDS011;37207;53.060;18.726;2024-02-16T00:48:14;66.80;;;50.30;;
51146;SDS011;37207;53.060;18.726;2024-02-16T00:51:01;65.40;;;49.80;;
51146;SDS011;37207;53.060;18.726;2024-02-16T00:53:28;59.40;;;47.10;;
51146;SDS011;37207;53.060;18.726;2024-02-16T00:55:54;63.60;;;46.90;;
51146;SDS011;37207;53.060;18.726;2024-02-16T00:58:21;47.50;;;21.90;;
51146;SDS011;37207;53.060;18.726;2024-02-16T01:00:48;76.00;;;51.50;;
51146;SDS011;37207;53.060;18.726;2024-02-16T01:03:55;46.80;;;23.30;;
51146;SDS011;37207;53.060;18.726;2024-02-16T01:06:24;57.50;;;46.20;;
51146;SDS011;37207;53.060;18.726;2024-02-16T01:08:51;39.90;;;23.20;;
51146;SDS011;37207;53.060;18.726;2024-02-16T01:11:21;72.40;;;52.60;;
51146;SDS011;37207;53.060;18.726;2024-02-16T01:13:48;54.70;;;26.10;;
51146;SDS011;37207;53.060;18.726;2024-02-16T01:16:17;79.80;;;53.80;;
51146;SDS011;37207;53.060;18.726;2024-02-16T01:19:10;80.40;;;57.10;;
51146;SDS011;37207;53.060;18.726;2024-02-16T01:21:37;72.80;;;57.70;;
51146;SDS011;37207;53.060;18.726;2024-02-16T01:24:03;61.90;;;49.60;;
51146;SDS011;37207;53.060;18.726;2024-02-16T01:26:31;88.70;;;56.10;;
51146;SDS011;37207;53.060;18.726;2024-02-16T01:28:58;76.80;;;50.50;;
51146;SDS011;37207;53.060;18.726;2024-02-16T01:31:26;42.40;;;22.90;;
51146;SDS011;37207;53.060;18.726;2024-02-16T01:33:53;64.50;;;46.80;;
51146;SDS011;37207;53.060;18.726;2024-02-16T01:36:19;57.80;;;45.90;;
51146;SDS011;37207;53.060;18.726;2024-02-16T01:38:46;54.90;;;44.40;;
51146;SDS011;37207;53.060;18.726;2024-02-16T01:41:21;125.10;;;69.70;;
51146;SDS011;37207;53.060;18.726;2024-02-16T01:44:10;63.70;;;46.70;;
51146;SDS011;37207;53.060;18.726;2024-02-16T01:46:36;92.50;;;58.50;;
51146;SDS011;37207;53.060;18.726;2024-02-16T01:49:03;102.70;;;66.60;;
51146;SDS011;37207;53.060;18.726;2024-02-16T01:51:34;118.90;;;73.30;;
51146;SDS011;37207;53.060;18.726;2024-02-16T01:54:21;67.60;;;52.30;;
51146;SDS011;37207;53.060;18.726;2024-02-16T01:56:49;55.30;;;42.80;;
51146;SDS011;37207;53.060;18.726;2024-02-16T01:59:16;55.50;;;41.80;;
51146;SDS011;37207;53.060;18.726;2024-02-16T02:01:44;50.70;;;38.90;;
51146;SDS011;37207;53.060;18.726;2024-02-16T02:04:10;92.90;;;62.80;;
51146;SDS011;37207;53.060;18.726;2024-02-16T02:06:57;70.10;;;27.40;;
51146;SDS011;37207;53.060;18.726;2024-02-16T02:09:24;105.60;;;74.40;;
51146;SDS011;37207;53.060;18.726;2024-02-16T02:11:50;67.40;;;47.20;;
51146;SDS011;37207;53.060;18.726;2024-02-16T02:14:18;53.70;;;22.10;;
51146;SDS011;37207;53.060;18.726;2024-02-16T02:16:49;64.70;;;26.10;;
51146;SDS011;37207;53.060;18.726;2024-02-16T02:19:15;45.00;;;21.60;;
51146;SDS011;37207;53.060;18.726;2024-02-16T02:21:42;62.30;;;42.80;;
51146;SDS011;37207;53.060;18.726;2024-02-16T02:24:09;56.70;;;43.40;;
51146;SDS011;37207;53.060;18.726;2024-02-16T02:26:37;40.40;;;19.60;;
51146;SDS011;37207;53.060;18.726;2024-02-16T02:29:04;51.10;;;39.40;;
51146;SDS011;37207;53.060;18.726;2024-02-16T02:31:31;40.40;;;20.30;;
51146;SDS011;37207;53.060;18.726;2024-02-16T02:33:58;49.30;;;37.60;;
51146;SDS011;37207;53.060;18.726;2024-02-16T02:36:24;47.70;;;38.00;;
51146;SDS011;37207;53.060;18.726;2024-02-16T02:38:51;51.20;;;38.20;;
51146;SDS011;37207;53.060;18.726;2024-02-16T02:41:17;48.10;;;38.10;;
51146;SDS011;37207;53.060;18.726;2024-02-16T02:43:46;42.40;;;18.10;;
51146;SDS011;37207;53.060;18.726;2024-02-16T02:46:15;43.10;;;36.90;;
51146;SDS011;37207;53.060;18.726;2024-02-16T02:48:43;47.10;;;37.80;;
51146;SDS011;37207;53.060;18.726;2024-02-16T02:51:10;39.90;;;35.70;;
51146;SDS011;37207;53.060;18.726;2024-02-16T02:53:37;47.00;;;35.60;;
51146;SDS011;37207;53.060;18.726;2024-02-16T02:56:04;46.60;;;36.90;;
51146;SDS011;37207;53.060;18.726;2024-02-16T02:58:31;46.00;;;36.60;;
51146;SDS011;37207;53.060;18.726;2024-02-16T03:00:58;33.00;;;17.90;;
51146;SDS011;37207;53.060;18.726;2024-02-16T03:03:24;44.10;;;36.10;;
51146;SDS011;37207;53.060;18.726;2024-02-16T03:05:51;48.00;;;37.60;;
51146;SDS011;37207;53.060;18.726;2024-02-16T03:08:18;34.50;;;17.30;;
51146;SDS011;37207;53.060;18.726;2024-02-16T03:10:45;42.00;;;37.40;;
51146;SDS011;37207;53.060;18.726;2024-02-16T03:13:11;47.90;;;38.60;;
51146;SDS011;37207;53.060;18.726;2024-02-16T03:15:39;49.60;;;36.10;;
51146;SDS011;37207;53.060;18.726;2024-02-16T03:18:06;32.10;;;17.80;;
51146;SDS011;37207;53.060;18.726;2024-02-16T03:20:35;43.30;;;35.70;;
51146;SDS011;37207;53.060;18.726;2024-02-16T03:23:02;37.30;;;19.00;;
51146;SDS011;37207;53.060;18.726;2024-02-16T03:25:29;43.20;;;34.30;;
51146;SDS011;37207;53.060;18.726;2024-02-16T03:27:55;42.20;;;34.70;;
51146;SDS011;37207;53.060;18.726;2024-02-16T03:30:22;41.30;;;18.60;;
51146;SDS011;37207;53.060;18.726;2024-02-16T03:32:49;41.80;;;35.10;;
51146;SDS011;37207;53.060;18.726;2024-02-16T03:35:16;41.30;;;34.50;;
51146;SDS011;37207;53.060;18.726;2024-02-16T03:37:43;42.90;;;33.80;;
51146;SDS011;37207;53.060;18.726;2024-02-16T03:40:11;19.40;;;14.50;;
51146;SDS011;37207;53.060;18.726;2024-02-16T03:42:39;36.80;;;32.90;;
51146;SDS011;37207;53.060;18.726;2024-02-16T03:45:07;50.40;;;37.20;;
51146;SDS011;37207;53.060;18.726;2024-02-16T03:47:34;36.50;;;17.00;;
51146;SDS011;37207;53.060;18.726;2024-02-16T03:50:01;41.60;;;34.50;;
51146;SDS011;37207;53.060;18.726;2024-02-16T03:52:28;40.30;;;33.90;;
51146;SDS011;37207;53.060;18.726;2024-02-16T03:54:55;41.90;;;34.20;;
51146;SDS011;37207;53.060;18.726;2024-02-16T03:57:21;44.40;;;35.30;;
51146;SDS011;37207;53.060;18.726;2024-02-16T03:59:48;36.70;;;32.70;;
51146;SDS011;37207;53.060;18.726;2024-02-16T04:02:15;39.30;;;34.10;;
51146;SDS011;37207;53.060;18.726;2024-02-16T04:04:41;37.90;;;32.90;;
51146;SDS011;37207;53.060;18.726;2024-02-16T04:07:08;38.30;;;32.70;;
51146;SDS011;37207;53.060;18.726;2024-02-16T04:09:35;43.90;;;35.30;;
51146;SDS011;37207;53.060;18.726;2024-02-16T04:12:01;46.20;;;35.50;;
51146;SDS011;37207;53.060;18.726;2024-02-16T04:14:30;41.80;;;33.20;;
51146;SDS011;37207;53.060;18.726;2024-02-16T04:16:57;40.70;;;33.70;;
51146;SDS011;37207;53.060;18.726;2024-02-16T04:19:26;39.80;;;34.20;;
51146;SDS011;37207;53.060;18.726;2024-02-16T04:21:53;34.90;;;16.80;;
51146;SDS011;37207;53.060;18.726;2024-02-16T04:24:20;31.70;;;17.00;;
51146;SDS011;37207;53.060;18.726;2024-02-16T04:26:47;39.60;;;34.30;;
51146;SDS011;37207;53.060;18.726;2024-02-16T04:29:14;42.40;;;33.50;;
51146;SDS011;37207;53.060;18.726;2024-02-16T04:31:41;38.30;;;32.30;;
51146;SDS011;37207;53.060;18.726;2024-02-16T04:34:08;39.70;;;33.70;;
51146;SDS011;37207;53.060;18.726;2024-02-16T04:36:35;41.20;;;33.30;;
51146;SDS011;37207;53.060;18.726;2024-02-16T04:39:02;41.90;;;33.80;;
51146;SDS011;37207;53.060;18.726;2024-02-16T04:41:29;41.50;;;33.50;;
51146;SDS011;37207;53.060;18.726;2024-02-16T04:43:55;43.80;;;33.80;;
51146;SDS011;37207;53.060;18.726;2024-02-16T04:46:22;22.60;;;12.80;;
51146;SDS011;37207;53.060;18.726;2024-02-16T04:48:49;38.70;;;32.30;;
51146;SDS011;37207;53.060;18.726;2024-02-16T04:51:15;36.80;;;30.40;;
51146;SDS011;37207;53.060;18.726;2024-02-16T04:53:42;28.20;;;15.20;;
51146;SDS011;37207;53.060;18.726;2024-02-16T04:56:09;34.30;;;16.70;;
51146;SDS011;37207;53.060;18.726;2024-02-16T04:58:39;38.40;;;31.50;;
51146;SDS011;37207;53.060;18.726;2024-02-16T05:01:07;36.80;;;30.30;;
51146;SDS011;37207;53.060;18.726;2024-02-16T05:03:34;36.40;;;31.40;;
51146;SDS011;37207;53.060;18.726;2024-02-16T05:06:01;32.40;;;15.10;;
51146;SDS011;37207;53.060;18.726;2024-02-16T05:08:27;40.50;;;31.20;;
51146;SDS011;37207;53.060;18.726;2024-02-16T05:10:54;31.20;;;14.90;;
51146;SDS011;37207;53.060;18.726;2024-02-16T05:13:20;36.30;;;31.60;;
51146;SDS011;37207;53.060;18.726;2024-02-16T05:15:47;36.60;;;31.30;;
51146;SDS011;37207;53.060;18.726;2024-02-16T05:18:15;36.40;;;31.70;;
51146;SDS011;37207;53.060;18.726;2024-02-16T05:20:41;34.40;;;30.60;;
51146;SDS011;37207;53.060;18.726;2024-02-16T05:23:08;27.70;;;15.60;;
51146;SDS011;37207;53.060;18.726;2024-02-16T05:25:35;36.10;;;31.30;;
51146;SDS011;37207;53.060;18.726;2024-02-16T05:28:01;40.00;;;32.70;;
51146;SDS011;37207;53.060;18.726;2024-02-16T05:30:29;28.20;;;15.20;;
51146;SDS011;37207;53.060;18.726;2024-02-16T05:32:55;17.50;;;13.50;;
51146;SDS011;37207;53.060;18.726;2024-02-16T05:35:24;56.50;;;19.50;;
51146;SDS011;37207;53.060;18.726;2024-02-16T05:37:54;55.30;;;39.90;;
51146;SDS011;37207;53.060;18.726;2024-02-16T05:40:21;62.80;;;42.00;;
51146;SDS011;37207;53.060;18.726;2024-02-16T05:42:53;37.50;;;16.90;;
51146;SDS011;37207;53.060;18.726;2024-02-16T05:45:20;63.40;;;42.40;;
51146;SDS011;37207;53.060;18.726;2024-02-16T05:47:48;35.50;;;18.40;;
51146;SDS011;37207;53.060;18.726;2024-02-16T05:50:16;60.80;;;40.80;;
51146;SDS011;37207;53.060;18.726;2024-02-16T05:52:43;56.50;;;38.40;;
51146;SDS011;37207;53.060;18.726;2024-02-16T05:55:11;54.30;;;37.80;;
51146;SDS011;37207;53.060;18.726;2024-02-16T05:57:38;50.50;;;37.00;;
51146;SDS011;37207;53.060;18.726;2024-02-16T06:00:05;44.90;;;36.40;;
51146;SDS011;37207;53.060;18.726;2024-02-16T06:02:33;30.00;;;15.60;;
51146;SDS011;37207;53.060;18.726;2024-02-16T06:05:01;47.00;;;36.60;;
51146;SDS011;37207;53.060;18.726;2024-02-16T06:07:29;28.30;;;14.20;;
51146;SDS011;37207;53.060;18.726;2024-02-16T06:09:57;48.80;;;37.70;;
51146;SDS011;37207;53.060;18.726;2024-02-16T06:12:24;52.40;;;39.50;;
51146;SDS011;37207;53.060;18.726;2024-02-16T06:14:50;47.30;;;37.60;;
51146;SDS011;37207;53.060;18.726;2024-02-16T06:17:18;26.60;;;14.30;;
51146;SDS011;37207;53.060;18.726;2024-02-16T06:19:45;35.00;;;17.80;;
51146;SDS011;37207;53.060;18.726;2024-02-16T06:22:11;50.20;;;38.40;;
51146;SDS011;37207;53.060;18.726;2024-02-16T06:24:38;35.40;;;19.80;;
51146;SDS011;37207;53.060;18.726;2024-02-16T06:27:05;46.70;;;38.10;;
51146;SDS011;37207;53.060;18.726;2024-02-16T06:29:31;47.60;;;38.00;;
51146;SDS011;37207;53.060;18.726;2024-02-16T06:31:58;35.30;;;19.20;;
51146;SDS011;37207;53.060;18.726;2024-02-16T06:34:25;55.70;;;40.00;;
51146;SDS011;37207;53.060;18.726;2024-02-16T06:36:52;63.50;;;43.00;;
51146;SDS011;37207;53.060;18.726;2024-02-16T06:39:18;35.60;;;17.30;;
51146;SDS011;37207;53.060;18.726;2024-02-16T06:41:46;49.50;;;39.80;;
51146;SDS011;37207;53.060;18.726;2024-02-16T06:44:13;41.20;;;19.00;;
51146;SDS011;37207;53.060;18.726;2024-02-16T06:46:41;51.00;;;38.90;;
51146;SDS011;37207;53.060;18.726;2024-02-16T06:49:08;36.60;;;19.70;;
51146;SDS011;37207;53.060;18.726;2024-02-16T06:51:35;47.70;;;40.60;;
51146;SDS011;37207;53.060;18.726;2024-02-16T06:54:04;51.80;;;39.80;;
51146;SDS011;37207;53.060;18.726;2024-02-16T06:56:31;24.10;;;14.00;;
51146;SDS011;37207;53.060;18.726;2024-02-16T06:58:57;48.30;;;39.30;;
51146;SDS011;37207;53.060;18.726;2024-02-16T07:01:24;31.10;;;19.10;;
51146;SDS011;37207;53.060;18.726;2024-02-16T07:03:53;53.60;;;39.90;;
51146;SDS011;37207;53.060;18.726;2024-02-16T07:06:21;50.70;;;41.20;;
51146;SDS011;37207;53.060;18.726;2024-02-16T07:08:47;33.60;;;18.90;;
51146;SDS011;37207;53.060;18.726;2024-02-16T07:11:14;44.20;;;19.60;;
51146;SDS011;37207;53.060;18.726;2024-02-16T07:13:41;47.50;;;38.30;;
51146;SDS011;37207;53.060;18.726;2024-02-16T07:16:09;44.80;;;37.80;;
51146;SDS011;37207;53.060;18.726;2024-02-16T07:18:36;48.20;;;38.60;;
51146;SDS011;37207;53.060;18.726;2024-02-16T07:21:03;50.20;;;40.40;;
51146;SDS011;37207;53.060;18.726;2024-02-16T07:23:29;39.40;;;19.80;;
51146;SDS011;37207;53.060;18.726;2024-02-16T07:25:56;49.90;;;38.10;;
51146;SDS011;37207;53.060;18.726;2024-02-16T07:28:26;50.00;;;39.20;;
51146;SDS011;37207;53.060;18.726;2024-02-16T07:30:56;32.60;;;19.30;;
51146;SDS011;37207;53.060;18.726;2024-02-16T07:33:22;39.20;;;19.40;;
51146;SDS011;37207;53.060;18.726;2024-02-16T07:35:50;39.40;;;34.20;;
51146;SDS011;37207;53.060;18.726;2024-02-16T07:38:18;38.40;;;34.30;;
51146;SDS011;37207;53.060;18.726;2024-02-16T07:40:44;40.30;;;32.90;;
51146;SDS011;37207;53.060;18.726;2024-02-16T07:43:12;34.80;;;31.00;;
51146;SDS011;37207;53.060;18.726;2024-02-16T07:45:38;35.00;;;31.20;;
51146;SDS011;37207;53.060;18.726;2024-02-16T07:48:05;41.90;;;32.90;;
51146;SDS011;37207;53.060;18.726;2024-02-16T07:50:33;37.20;;;29.90;;
51146;SDS011;37207;53.060;18.726;2024-02-16T07:53:00;33.40;;;29.40;;
51146;SDS011;37207;53.060;18.726;2024-02-16T07:55:27;33.70;;;29.70;;
51146;SDS011;37207;53.060;18.726;2024-02-16T07:57:53;33.30;;;29.30;;
51146;SDS011;37207;53.060;18.726;2024-02-16T08:00:20;35.20;;;30.60;;
51146;SDS011;37207;53.060;18.726;2024-02-16T08:02:47;37.20;;;32.70;;
51146;SDS011;37207;53.060;18.726;2024-02-16T08:05:13;36.40;;;30.60;;
51146;SDS011;37207;53.060;18.726;2024-02-16T08:07:40;34.90;;;31.00;;
51146;SDS011;37207;53.060;18.726;2024-02-16T08:10:11;39.40;;;32.90;;
51146;SDS011;37207;53.060;18.726;2024-02-16T08:12:38;36.80;;;32.70;;
51146;SDS011;37207;53.060;18.726;2024-02-16T08:15:05;36.70;;;32.00;;
51146;SDS011;37207;53.060;18.726;2024-02-16T08:17:33;36.00;;;32.10;;
51146;SDS011;37207;53.060;18.726;2024-02-16T08:20:01;37.90;;;33.40;;
51146;SDS011;37207;53.060;18.726;2024-02-16T08:22:28;40.30;;;33.80;;
51146;SDS011;37207;53.060;18.726;2024-02-16T08:24:55;28.60;;;14.30;;
51146;SDS011;37207;53.060;18.726;2024-02-16T08:27:22;37.30;;;33.30;;
51146;SDS011;37207;53.060;18.726;2024-02-16T08:29:48;44.90;;;34.90;;
51146;SDS011;37207;53.060;18.726;2024-02-16T08:32:15;40.40;;;36.20;;
51146;SDS011;37207;53.060;18.726;2024-02-16T08:34:58;36.90;;;33.00;;
51146;SDS011;37207;53.060;18.726;2024-02-16T08:37:25;46.20;;;34.10;;
51146;SDS011;37207;53.060;18.726;2024-02-16T08:39:53;45.30;;;35.80;;
51146;SDS011;37207;53.060;18.726;2024-02-16T08:42:21;47.80;;;39.30;;
51146;SDS011;37207;53.060;18.726;2024-02-16T08:44:50;41.40;;;36.10;;
51146;SDS011;37207;53.060;18.726;2024-02-16T08:47:17;38.80;;;33.40;;
51146;SDS011;37207;53.060;18.726;2024-02-16T08:49:43;40.20;;;33.00;;
51146;SDS011;37207;53.060;18.726;2024-02-16T08:52:10;38.60;;;33.70;;
51146;SDS011;37207;53.060;18.726;2024-02-16T08:54:38;39.30;;;33.50;;
51146;SDS011;37207;53.060;18.726;2024-02-16T08:57:05;39.40;;;34.70;;
51146;SDS011;37207;53.060;18.726;2024-02-16T08:59:32;40.60;;;33.90;;
51146;SDS011;37207;53.060;18.726;2024-02-16T09:02:00;28.90;;;15.90;;
51146;SDS011;37207;53.060;18.726;2024-02-16T09:04:27;39.00;;;33.80;;
51146;SDS011;37207;53.060;18.726;2024-02-16T09:06:53;41.10;;;31.90;;
51146;SDS011;37207;53.060;18.726;2024-02-16T09:09:20;38.10;;;33.90;;
51146;SDS011;37207;53.060;18.726;2024-02-16T09:11:47;51.10;;;36.30;;
51146;SDS011;37207;53.060;18.726;2024-02-16T09:14:13;37.00;;;32.90;;
51146;SDS011;37207;53.060;18.726;2024-02-16T09:16:40;40.00;;;32.90;;
51146;SDS011;37207;53.060;18.726;2024-02-16T09:19:10;40.70;;;32.30;;
51146;SDS011;37207;53.060;18.726;2024-02-16T09:21:37;37.20;;;32.40;;
51146;SDS011;37207;53.060;18.726;2024-02-16T09:24:04;35.50;;;31.10;;
51146;SDS011;37207;53.060;18.726;2024-02-16T09:26:36;35.50;;;31.40;;
51146;SDS011;37207;53.060;18.726;2024-02-16T09:29:04;35.80;;;31.60;;
51146;SDS011;37207;53.060;18.726;2024-02-16T09:31:30;36.30;;;31.00;;
51146;SDS011;37207;53.060;18.726;2024-02-16T09:33:58;39.60;;;30.50;;
51146;SDS011;37207;53.060;18.726;2024-02-16T09:36:25;34.30;;;29.40;;
51146;SDS011;37207;53.060;18.726;2024-02-16T09:38:52;35.20;;;31.50;;
51146;SDS011;37207;53.060;18.726;2024-02-16T09:41:19;36.70;;;29.70;;
51146;SDS011;37207;53.060;18.726;2024-02-16T09:43:46;36.40;;;30.00;;
51146;SDS011;37207;53.060;18.726;2024-02-16T09:46:13;33.90;;;29.30;;
51146;SDS011;37207;53.060;18.726;2024-02-16T09:48:45;35.80;;;29.40;;
51146;SDS011;37207;53.060;18.726;2024-02-16T09:51:14;33.10;;;29.30;;
51146;SDS011;37207;53.060;18.726;2024-02-16T09:53:43;33.70;;;30.00;;
51146;SDS011;37207;53.060;18.726;2024-02-16T09:56:22;32.40;;;28.90;;
51146;SDS011;37207;53.060;18.726;2024-02-16T09:58:52;36.00;;;30.40;;
51146;SDS011;37207;53.060;18.726;2024-02-16T10:01:18;33.10;;;29.70;;
51146;SDS011;37207;53.060;18.726;2024-02-16T10:03:49;40.00;;;29.00;;
51146;SDS011;37207;53.060;18.726;2024-02-16T10:06:17;34.30;;;28.10;;
51146;SDS011;37207;53.060;18.726;2024-02-16T10:08:50;34.80;;;28.70;;
51146;SDS011;37207;53.060;18.726;2024-02-16T10:11:26;33.80;;;27.90;;
51146;SDS011;37207;53.060;18.726;2024-02-16T10:13:56;33.30;;;27.30;;
51146;SDS011;37207;53.060;18.726;2024-02-16T10:16:24;35.60;;;28.60;;
51146;SDS011;37207;53.060;18.726;2024-02-16T10:18:52;32.00;;;28.60;;
51146;SDS011;37207;53.060;18.726;2024-02-16T10:21:29;36.10;;;30.00;;
51146;SDS011;37207;53.060;18.726;2024-02-16T10:24:05;31.30;;;28.00;;
51146;SDS011;37207;53.060;18.726;2024-02-16T10:26:54;33.80;;;28.70;;
51146;SDS011;37207;53.060;18.726;2024-02-16T10:29:21;34.70;;;28.90;;
51146;SDS011;37207;53.060;18.726;2024-02-16T10:31:50;35.40;;;29.50;;
51146;SDS011;37207;53.060;18.726;2024-02-16T10:34:17;33.80;;;27.50;;
51146;SDS011;37207;53.060;18.726;2024-02-16T10:36:45;35.80;;;28.00;;
51146;SDS011;37207;53.060;18.726;2024-02-16T10:39:12;30.40;;;26.30;;
51146;SDS011;37207;53.060;18.726;2024-02-16T10:41:40;30.20;;;26.00;;
51146;SDS011;37207;53.060;18.726;2024-02-16T10:44:08;30.40;;;25.60;;
51146;SDS011;37207;53.060;18.726;2024-02-16T10:46:36;31.10;;;24.60;;
51146;SDS011;37207;53.060;18.726;2024-02-16T10:49:06;33.90;;;24.00;;
51146;SDS011;37207;53.060;18.726;2024-02-16T10:51:40;24.80;;;22.30;;
51146;SDS011;37207;53.060;18.726;2024-02-16T10:54:10;23.70;;;21.30;;
51146;SDS011;37207;53.060;18.726;2024-02-16T10:56:42;23.00;;;20.90;;
51146;SDS011;37207;53.060;18.726;2024-02-16T10:59:09;23.10;;;20.30;;
51146;SDS011;37207;53.060;18.726;2024-02-16T11:01:37;24.20;;;19.70;;
51146;SDS011;37207;53.060;18.726;2024-02-16T11:04:08;20.50;;;18.40;;
51146;SDS011;37207;53.060;18.726;2024-02-16T11:11:55;19.70;;;17.60;;
51146;SDS011;37207;53.060;18.726;2024-02-16T11:14:38;18.90;;;17.10;;
51146;SDS011;37207;53.060;18.726;2024-02-16T11:17:07;19.60;;;17.50;;
51146;SDS011;37207;53.060;18.726;2024-02-16T11:19:40;17.70;;;16.30;;
51146;SDS011;37207;53.060;18.726;2024-02-16T11:22:10;18.10;;;16.40;;
51146;SDS011;37207;53.060;18.726;2024-02-16T11:24:59;24.10;;;16.40;;
51146;SDS011;37207;53.060;18.726;2024-02-16T11:27:25;16.60;;;15.10;;
51146;SDS011;37207;53.060;18.726;2024-02-16T11:29:52;17.80;;;15.90;;
51146;SDS011;37207;53.060;18.726;2024-02-16T11:32:19;17.40;;;15.80;;
51146;SDS011;37207;53.060;18.726;2024-02-16T11:34:46;19.10;;;16.50;;
51146;SDS011;37207;53.060;18.726;2024-02-16T11:37:13;18.60;;;16.30;;
51146;SDS011;37207;53.060;18.726;2024-02-16T11:39:43;19.60;;;15.70;;
51146;SDS011;37207;53.060;18.726;2024-02-16T11:42:12;16.80;;;15.30;;
51146;SDS011;37207;53.060;18.726;2024-02-16T11:44:50;16.90;;;15.20;;
51146;SDS011;37207;53.060;18.726;2024-02-16T11:47:19;17.00;;;15.30;;
51146;SDS011;37207;53.060;18.726;2024-02-16T11:50:01;15.30;;;14.10;;
51146;SDS011;37207;53.060;18.726;2024-02-16T11:52:28;19.00;;;15.70;;
51146;SDS011;37207;53.060;18.726;2024-02-16T11:54:55;16.20;;;14.80;;
51146;SDS011;37207;53.060;18.726;2024-02-16T11:57:21;16.80;;;15.20;;
51146;SDS011;37207;53.060;18.726;2024-02-16T11:59:49;21.20;;;15.20;;
51146;SDS011;37207;53.060;18.726;2024-02-16T12:02:19;18.20;;;15.70;;
51146;SDS011;37207;53.060;18.726;2024-02-16T12:04:59;17.10;;;15.30;;
51146;SDS011;37207;53.060;18.726;2024-02-16T12:07:26;15.80;;;14.30;;
51146;SDS011;37207;53.060;18.726;2024-02-16T12:09:56;16.60;;;15.20;;
51146;SDS011;37207;53.060;18.726;2024-02-16T12:12:27;17.50;;;15.70;;
51146;SDS011;37207;53.060;18.726;2024-02-16T12:14:54;16.70;;;15.00;;
51146;SDS011;37207;53.060;18.726;2024-02-16T12:17:21;15.40;;;14.30;;
51146;SDS011;37207;53.060;18.726;2024-02-16T12:19:49;16.80;;;15.00;;
51146;SDS011;37207;53.060;18.726;2024-02-16T12:22:18;22.30;;;15.00;;
51146;SDS011;37207;53.060;18.726;2024-02-16T12:24:46;16.90;;;15.60;;
51146;SDS011;37207;53.060;18.726;2024-02-16T12:27:14;18.20;;;16.20;;
51146;SDS011;37207;53.060;18.726;2024-02-16T12:29:43;20.00;;;15.90;;
51146;SDS011;37207;53.060;18.726;2024-02-16T12:32:10;17.80;;;16.30;;
51146;SDS011;37207;53.060;18.726;2024-02-16T12:34:37;17.20;;;15.70;;
51146;SDS011;37207;53.060;18.726;2024-02-16T12:37:04;17.00;;;15.30;;
51146;SDS011;37207;53.060;18.726;2024-02-16T12:39:36;16.20;;;14.80;;
51146;SDS011;37207;53.060;18.726;2024-02-16T12:42:03;19.20;;;16.80;;
51146;SDS011;37207;53.060;18.726;2024-02-16T12:44:30;18.40;;;16.60;;
51146;SDS011;37207;53.060;18.726;2024-02-16T12:46:59;17.40;;;15.80;;
51146;SDS011;37207;53.060;18.726;2024-02-16T12:49:26;17.80;;;15.90;;
51146;SDS011;37207;53.060;18.726;2024-02-16T12:51:52;15.40;;;14.00;;
51146;SDS011;37207;53.060;18.726;2024-02-16T12:54:20;20.60;;;15.60;;
51146;SDS011;37207;53.060;18.726;2024-02-16T12:56:48;16.50;;;14.80;;
51146;SDS011;37207;53.060;18.726;2024-02-16T12:59:17;16.10;;;14.10;;
51146;SDS011;37207;53.060;18.726;2024-02-16T13:01:45;18.40;;;14.60;;
51146;SDS011;37207;53.060;18.726;2024-02-16T13:04:13;17.20;;;15.30;;
51146;SDS011;37207;53.060;18.726;2024-02-16T13:06:47;17.30;;;15.40;;
51146;SDS011;37207;53.060;18.726;2024-02-16T13:09:15;16.10;;;14.40;;
51146;SDS011;37207;53.060;18.726;2024-02-16T13:11:41;16.20;;;14.80;;
51146;SDS011;37207;53.060;18.726;2024-02-16T13:14:08;15.50;;;14.10;;
51146;SDS011;37207;53.060;18.726;2024-02-16T13:16:35;15.80;;;14.30;;
51146;SDS011;37207;53.060;18.726;2024-02-16T13:19:01;17.10;;;15.10;;
51146;SDS011;37207;53.060;18.726;2024-02-16T13:21:29;16.60;;;15.10;;
51146;SDS011;37207;53.060;18.726;2024-02-16T13:23:56;14.70;;;13.50;;
51146;SDS011;37207;53.060;18.726;2024-02-16T13:26:22;15.00;;;13.30;;
51146;SDS011;37207;53.060;18.726;2024-02-16T13:28:49;14.10;;;13.00;;
51146;SDS011;37207;53.060;18.726;2024-02-16T13:31:16;14.20;;;13.10;;
51146;SDS011;37207;53.060;18.726;2024-02-16T13:33:43;14.30;;;12.90;;
51146;SDS011;37207;53.060;18.726;2024-02-16T13:36:09;18.70;;;15.00;;
51146;SDS011;37207;53.060;18.726;2024-02-16T13:38:36;15.40;;;13.10;;
51146;SDS011;37207;53.060;18.726;2024-02-16T13:41:03;16.60;;;13.70;;
51146;SDS011;37207;53.060;18.726;2024-02-16T13:43:31;14.10;;;12.80;;
51146;SDS011;37207;53.060;18.726;2024-02-16T13:45:58;14.40;;;13.20;;
51146;SDS011;37207;53.060;18.726;2024-02-16T13:48:25;13.30;;;12.10;;
51146;SDS011;37207;53.060;18.726;2024-02-16T13:50:53;13.80;;;12.60;;
51146;SDS011;37207;53.060;18.726;2024-02-16T13:55:49;13.60;;;12.40;;
51146;SDS011;37207;53.060;18.726;2024-02-16T13:58:16;15.50;;;14.10;;
51146;SDS011;37207;53.060;18.726;2024-02-16T14:00:43;15.70;;;14.20;;
51146;SDS011;37207;53.060;18.726;2024-02-16T14:03:10;16.50;;;15.00;;
51146;SDS011;37207;53.060;18.726;2024-02-16T14:05:38;14.40;;;13.10;;
51146;SDS011;37207;53.060;18.726;2024-02-16T14:08:05;14.30;;;13.00;;
51146;SDS011;37207;53.060;18.726;2024-02-16T14:10:34;16.30;;;13.40;;
51146;SDS011;37207;53.060;18.726;2024-02-16T14:13:01;14.30;;;13.00;;
51146;SDS011;37207;53.060;18.726;2024-02-16T14:15:27;17.10;;;14.40;;
51146;SDS011;37207;53.060;18.726;2024-02-16T14:17:54;16.50;;;14.60;;
51146;SDS011;37207;53.060;18.726;2024-02-16T14:20:21;15.60;;;14.00;;
51146;SDS011;37207;53.060;18.726;2024-02-16T14:22:48;247.10;;;168.60;;